Time;durP1;ratioP1;P1;durP2;ratioP2;P2;SDS_P1;SDS_P2;PMS_P1;PMS_P2;Temp;Humidity;BMP_temperature;BMP_pressure;BME280_temperature;BME280_humidity;BME280_pressure;Samples;Min_cycle;Max_cycle;Signal;HPM_P1;HPM_P2
2023/08/14 00:01:39;;;;;;;15.88;11.20;;;14.90;85.40;;;;;;5016428;28;20536;-59
2023/08/14 00:04:06;;;;;;;19.65;10.93;;;15.00;85.60;;;;;;5015443;28;20038;-59
2023/08/14 00:06:34;;;;;;;17.80;11.00;;;15.00;85.50;;;;;;5016150;28;20088;-59
2023/08/14 00:09:02;;;;;;;17.98;12.77;;;15.00;85.10;;;;;;5015064;28;20058;-60
2023/08/14 00:11:40;;;;;;;18.83;10.73;;;15.00;85.70;;;;;;5031189;28;20022;-59
2023/08/14 00:14:08;;;;;;;16.77;10.88;;;15.10;85.00;;;;;;5016249;28;20028;-60
2023/08/14 00:16:36;;;;;;;23.08;14.52;;;15.40;84.60;;;;;;5016064;28;20024;-59
2023/08/14 00:19:04;;;;;;;15.90;9.73;;;15.50;84.60;;;;;;5023558;28;20533;-59
2023/08/14 00:21:31;;;;;;;17.20;10.65;;;15.30;83.70;;;;;;5035861;28;20067;-60
2023/08/14 00:23:59;;;;;;;23.48;13.23;;;15.30;84.70;;;;;;5034814;28;20446;-60
2023/08/14 00:26:26;;;;;;;17.95;11.65;;;15.10;84.80;;;;;;5035631;28;20033;-60
2023/08/14 00:28:54;;;;;;;17.88;11.32;;;15.20;84.70;;;;;;5034633;28;20374;-59
2023/08/14 00:31:21;;;;;;;18.05;10.98;;;15.20;84.20;;;;;;5034640;28;20032;-60
2023/08/14 00:33:50;;;;;;;19.00;12.45;;;15.20;84.80;;;;;;5034713;28;20486;-60
2023/08/14 00:36:18;;;;;;;21.90;12.00;;;15.30;84.80;;;;;;5034544;28;20080;-58
2023/08/14 00:38:46;;;;;;;20.05;12.35;;;15.50;84.80;;;;;;5033956;28;20022;-59
2023/08/14 00:41:13;;;;;;;18.80;12.00;;;15.80;84.00;;;;;;5035355;28;20033;-59
2023/08/14 00:43:41;;;;;;;18.67;12.18;;;15.90;83.10;;;;;;5035852;28;20044;-59
2023/08/14 00:46:09;;;;;;;19.40;11.90;;;16.10;82.70;;;;;;5035313;28;20374;-59
2023/08/14 00:48:37;;;;;;;18.38;11.02;;;16.10;81.80;;;;;;5034211;28;20075;-59
2023/08/14 00:51:05;;;;;;;17.08;11.32;;;16.30;81.10;;;;;;5017624;28;20074;-58
2023/08/14 00:53:33;;;;;;;17.05;11.27;;;16.40;80.90;;;;;;5034351;28;20029;-60
2023/08/14 00:56:03;;;;;;;15.75;9.60;;;16.70;80.00;;;;;;5034246;28;20047;-59
2023/08/14 00:58:31;;;;;;;13.60;9.18;;;17.10;78.50;;;;;;5035212;28;20493;-59
2023/08/14 01:01:00;;;;;;;11.82;8.52;;;17.50;77.50;;;;;;5034244;28;20470;-60
2023/08/14 01:03:28;;;;;;;11.27;7.65;;;17.60;76.20;;;;;;5034075;28;20030;-60
2023/08/14 01:05:57;;;;;;;11.70;8.27;;;17.80;75.10;;;;;;5034072;28;20061;-60
2023/08/14 01:08:25;;;;;;;12.23;8.15;;;17.60;75.40;;;;;;5017533;28;20075;-60
2023/08/14 01:11:07;;;;;;;10.63;7.97;;;17.70;75.90;;;;;;5034113;28;20036;-59
2023/08/14 01:13:55;;;;;;;11.35;7.65;;;17.30;76.00;;;;;;4986360;28;20100;-58
2023/08/14 01:16:30;;;;;;;10.80;7.03;;;17.20;76.60;;;;;;5017616;28;20029;-60
2023/08/14 01:19:00;;;;;;;11.57;8.13;;;17.50;75.60;;;;;;5033727;28;20463;-60
2023/08/14 01:21:43;;;;;;;11.10;7.32;;;17.50;75.20;;;;;;5033928;28;20116;-60
2023/08/14 01:24:38;;;;;;;11.43;7.65;;;17.30;75.70;;;;;;5017561;28;20103;-60
2023/08/14 01:27:06;;;;;;;10.88;8.05;;;17.20;76.00;;;;;;5033810;28;20414;-60
2023/08/14 01:29:41;;;;;;;10.93;7.38;;;17.10;74.50;;;;;;5034214;28;20355;-60
2023/08/14 01:32:19;;;;;;;10.95;7.97;;;16.90;75.00;;;;;;5033805;28;20506;-60
2023/08/14 01:34:46;;;;;;;11.98;8.57;;;16.70;76.30;;;;;;5033815;28;20053;-60
2023/08/14 01:37:33;;;;;;;10.80;8.05;;;16.60;76.50;;;;;;5034953;28;20104;-60
2023/08/14 01:40:10;;;;;;;12.73;8.32;;;16.90;75.80;;;;;;5017537;28;20021;-61
2023/08/14 01:42:39;;;;;;;16.00;9.70;;;16.60;75.80;;;;;;5017686;28;20076;-62
2023/08/14 01:45:13;;;;;;;14.77;9.32;;;16.40;76.70;;;;;;5024645;28;20083;-62
2023/08/14 01:47:42;;;;;;;13.70;9.38;;;16.30;77.00;;;;;;5017130;28;20112;-61
2023/08/14 01:50:10;;;;;;;13.50;9.40;;;16.30;76.80;;;;;;5017576;28;20029;-59
2023/08/14 01:52:38;;;;;;;15.13;9.13;;;16.20;77.30;;;;;;5037275;28;20455;-59
2023/08/14 01:55:06;;;;;;;13.35;8.18;;;16.10;77.30;;;;;;5038465;28;20029;-63
2023/08/14 01:57:33;;;;;;;9.93;7.00;;;15.70;78.90;;;;;;5037340;28;20466;-63
2023/08/14 02:00:01;;;;;;;10.50;6.50;;;16.00;77.70;;;;;;5037302;28;20025;-63
2023/08/14 02:02:29;;;;;;;11.50;6.65;;;16.20;77.10;;;;;;5037143;28;20053;-64
2023/08/14 02:04:56;;;;;;;9.13;6.13;;;16.40;76.40;;;;;;5038385;28;20053;-60
2023/08/14 02:07:24;;;;;;;9.30;6.57;;;16.50;74.80;;;;;;5037977;28;20026;-60
2023/08/14 02:09:52;;;;;;;10.20;6.78;;;16.60;76.00;;;;;;5020761;28;20018;-63
2023/08/14 02:12:19;;;;;;;9.32;5.72;;;16.70;76.00;;;;;;5020846;28;20137;-59
2023/08/14 02:14:47;;;;;;;9.52;6.75;;;16.80;73.20;;;;;;5020726;28;20025;-64
2023/08/14 02:17:14;;;;;;;9.70;6.32;;;16.60;74.10;;;;;;5037141;28;20029;-63
2023/08/14 02:19:42;;;;;;;10.50;6.57;;;16.60;74.90;;;;;;5037882;28;20077;-59
2023/08/14 02:22:09;;;;;;;9.02;6.18;;;16.50;75.00;;;;;;5038127;28;20028;-63
2023/08/14 02:24:37;;;;;;;9.68;5.75;;;16.10;76.40;;;;;;5037992;28;20451;-63
2023/08/14 02:27:05;;;;;;;8.65;5.82;;;16.20;75.80;;;;;;5020503;28;20037;-64
2023/08/14 02:29:32;;;;;;;12.88;6.75;;;16.30;76.30;;;;;;5020458;28;20451;-61
2023/08/14 02:32:00;;;;;;;13.93;8.18;;;16.40;75.60;;;;;;5020986;28;20021;-59
2023/08/14 02:34:49;;;;;;;14.88;7.88;;;16.50;75.90;;;;;;5036586;28;20033;-60
2023/08/14 02:37:19;;;;;;;11.70;7.25;;;16.50;75.40;;;;;;5020322;28;20041;-63
2023/08/14 02:39:47;;;;;;;10.88;7.22;;;16.60;75.50;;;;;;5037661;28;20025;-64
2023/08/14 02:42:19;;;;;;;14.02;7.68;;;16.80;75.60;;;;;;5020103;28;20045;-64
2023/08/14 02:44:47;;;;;;;12.00;8.10;;;16.90;74.00;;;;;;5020023;28;20112;-64
2023/08/14 02:47:15;;;;;;;12.02;8.00;;;16.90;74.50;;;;;;5037495;28;20025;-64
2023/08/14 02:49:43;;;;;;;12.20;7.85;;;16.70;74.60;;;;;;5020172;28;20075;-60
2023/08/14 02:52:10;;;;;;;13.02;7.63;;;16.60;74.10;;;;;;5020106;28;20041;-64
2023/08/14 02:54:38;;;;;;;11.00;7.10;;;16.80;74.70;;;;;;5020239;28;20025;-59
2023/08/14 02:57:05;;;;;;;13.77;7.70;;;16.60;74.30;;;;;;5037305;28;20021;-60
2023/08/14 02:59:35;;;;;;;12.18;6.90;;;16.70;74.10;;;;;;5037179;28;20110;-60
2023/08/14 03:02:02;;;;;;;12.45;7.63;;;16.50;74.70;;;;;;5019634;28;20026;-64
2023/08/14 03:04:30;;;;;;;10.73;7.03;;;16.40;75.30;;;;;;5019761;28;20029;-64
2023/08/14 03:06:58;;;;;;;10.77;6.60;;;16.50;75.40;;;;;;5036209;28;20029;-64
2023/08/14 03:09:25;;;;;;;11.27;6.85;;;16.40;75.60;;;;;;5037343;28;20355;-60
2023/08/14 03:11:53;;;;;;;10.43;6.63;;;16.50;76.00;;;;;;5019508;28;20029;-59
2023/08/14 03:14:20;;;;;;;10.20;6.28;;;16.40;77.70;;;;;;5037007;28;20398;-59
2023/08/14 03:16:48;;;;;;;13.00;7.25;;;16.40;78.40;;;;;;5020055;28;20063;-59
2023/08/14 03:19:15;;;;;;;11.60;7.20;;;16.40;79.40;;;;;;5037470;28;20113;-60
2023/08/14 03:21:43;;;;;;;11.50;6.93;;;16.30;80.30;;;;;;5036193;28;20033;-60
2023/08/14 03:24:11;;;;;;;13.60;7.30;;;16.30;80.00;;;;;;5035961;28;20035;-60
2023/08/14 03:26:38;;;;;;;12.20;7.38;;;16.00;80.80;;;;;;5019434;28;20359;-63
2023/08/14 03:29:06;;;;;;;11.63;7.55;;;15.90;82.30;;;;;;5019337;28;20045;-60
2023/08/14 03:31:33;;;;;;;13.43;7.50;;;15.90;82.00;;;;;;5019352;28;20029;-60
2023/08/14 03:34:01;;;;;;;13.30;8.82;;;15.80;83.00;;;;;;5019382;28;20036;-59
2023/08/14 03:36:29;;;;;;;13.82;8.07;;;15.50;84.00;;;;;;5019262;28;20033;-64
2023/08/14 03:38:56;;;;;;;12.68;8.68;;;15.40;84.50;;;;;;5035525;28;20057;-65
2023/08/14 03:41:24;;;;;;;13.25;7.70;;;15.50;84.40;;;;;;5035582;28;20079;-65
2023/08/14 03:43:51;;;;;;;11.98;7.45;;;15.50;84.60;;;;;;5036546;28;20032;-63
2023/08/14 03:46:19;;;;;;;11.52;8.25;;;15.40;84.40;;;;;;5018991;28;20040;-64
2023/08/14 03:48:46;;;;;;;13.38;8.60;;;15.30;85.50;;;;;;5018921;28;20040;-59
2023/08/14 03:51:14;;;;;;;17.05;9.55;;;15.40;86.50;;;;;;5036490;28;20025;-60
2023/08/14 03:53:42;;;;;;;11.80;8.00;;;15.40;86.70;;;;;;5018851;28;20347;-59
2023/08/14 03:56:09;;;;;;;11.60;8.13;;;15.50;86.80;;;;;;5018908;28;20028;-59
2023/08/14 03:58:37;;;;;;;13.77;8.77;;;15.20;86.70;;;;;;5035130;28;20364;-61
2023/08/14 04:01:05;;;;;;;13.82;9.70;;;15.00;86.90;;;;;;5035205;28;20513;-60
2023/08/14 04:03:33;;;;;;;15.65;10.07;;;14.90;87.60;;;;;;5035142;28;20459;-59
2023/08/14 04:06:02;;;;;;;13.60;9.48;;;14.80;88.00;;;;;;5036062;28;20033;-59
2023/08/14 04:08:29;;;;;;;12.65;8.48;;;14.70;88.20;;;;;;5018616;28;20351;-59
2023/08/14 04:10:58;;;;;;;16.38;10.07;;;14.70;88.40;;;;;;5034997;28;20435;-60
2023/08/14 04:13:26;;;;;;;14.52;8.90;;;14.70;88.60;;;;;;5034294;28;20033;-59
2023/08/14 04:16:00;;;;;;;11.93;8.55;;;14.70;89.00;;;;;;5035866;28;20017;-59
2023/08/14 04:18:28;;;;;;;9.90;4.82;;;14.80;89.00;;;;;;5018242;28;20416;-60
2023/08/14 04:20:57;;;;;;;2.53;1.60;;;14.80;87.90;;;;;;5018810;28;20021;-59
2023/08/14 04:23:26;;;;;;;2.50;1.00;;;14.70;87.00;;;;;;5034833;28;20048;-60
2023/08/14 04:25:54;;;;;;;1.63;1.05;;;14.60;86.80;;;;;;5034696;28;20045;-60
2023/08/14 04:28:22;;;;;;;1.77;0.90;;;14.50;87.20;;;;;;5018239;28;20021;-60
2023/08/14 04:30:49;;;;;;;2.03;0.70;;;14.50;87.70;;;;;;5018260;28;20059;-60
2023/08/14 04:33:18;;;;;;;3.25;0.70;;;14.50;87.30;;;;;;5018559;28;20036;-64
2023/08/14 04:35:46;;;;;;;3.60;0.73;;;14.50;87.70;;;;;;5018184;28;20022;-64
2023/08/14 04:38:13;;;;;;;2.10;0.90;;;14.50;87.80;;;;;;5035531;28;20358;-64
2023/08/14 04:40:41;;;;;;;1.70;0.80;;;14.50;88.00;;;;;;5018216;28;20017;-65
2023/08/14 04:43:09;;;;;;;1.88;0.80;;;14.50;87.70;;;;;;5018235;28;20022;-65
2023/08/14 04:45:37;;;;;;;1.80;0.80;;;14.60;87.30;;;;;;5035629;28;20025;-66
2023/08/14 04:48:05;;;;;;;2.35;0.88;;;14.50;86.90;;;;;;5017864;28;20344;-61
2023/08/14 04:50:32;;;;;;;1.17;0.60;;;14.50;86.70;;;;;;5017973;28;20025;-60
2023/08/14 04:53:00;;;;;;;1.85;0.88;;;14.40;86.60;;;;;;5035448;28;20018;-65
2023/08/14 04:55:28;;;;;;;9.82;8.95;;;14.30;86.50;;;;;;5018028;28;20021;-59
2023/08/14 04:57:56;;;;;;;6.90;6.00;;;14.20;86.90;;;;;;5017820;28;20025;-59
2023/08/14 05:00:23;;;;;;;2.75;0.90;;;14.20;87.10;;;;;;5017874;28;20025;-60
2023/08/14 05:02:51;;;;;;;1.52;0.75;;;14.10;86.30;;;;;;5017908;28;20021;-60
2023/08/14 05:05:19;;;;;;;2.38;0.80;;;14.20;87.20;;;;;;5034254;28;20036;-61
2023/08/14 05:07:47;;;;;;;2.65;1.30;;;14.20;87.40;;;;;;5034014;28;20022;-59
2023/08/14 05:10:15;;;;;;;2.42;1.02;;;14.10;87.40;;;;;;5035093;28;20029;-59
2023/08/14 05:12:42;;;;;;;1.58;0.90;;;14.10;87.50;;;;;;5035091;28;20025;-60
2023/08/14 05:15:10;;;;;;;13.23;9.65;;;14.00;87.70;;;;;;5035424;28;20018;-65
2023/08/14 05:17:38;;;;;;;37.35;22.67;;;14.00;88.40;;;;;;5017439;28;20075;-66
2023/08/14 05:20:06;;;;;;;51.10;29.25;;;14.00;88.50;;;;;;5034952;28;20101;-65
2023/08/14 05:22:34;;;;;;;38.95;19.05;;;14.00;88.90;;;;;;5033890;28;20021;-65
2023/08/14 05:25:02;;;;;;;16.02;8.10;;;13.90;88.80;;;;;;5034979;28;20497;-64
2023/08/14 05:27:31;;;;;;;3.75;1.02;;;13.80;88.80;;;;;;5021582;28;20029;-65
2023/08/14 05:29:59;;;;;;;1.90;0.90;;;13.80;88.80;;;;;;5021656;28;20387;-65
2023/08/14 05:32:27;;;;;;;79.72;46.05;;;13.70;88.80;;;;;;5021528;28;20025;-65
2023/08/14 05:34:54;;;;;;;13.00;5.90;;;13.70;89.00;;;;;;5021419;28;20026;-65
2023/08/14 05:37:22;;;;;;;4.32;1.45;;;13.70;88.90;;;;;;5021373;28;20025;-65
2023/08/14 05:39:50;;;;;;;23.20;12.30;;;13.70;88.80;;;;;;5021426;28;20030;-66
2023/08/14 05:42:17;;;;;;;9.02;4.93;;;13.70;89.40;;;;;;5038775;28;20040;-65
2023/08/14 05:44:45;;;;;;;6.32;2.50;;;13.80;89.70;;;;;;5037757;28;20143;-65
2023/08/14 05:47:12;;;;;;;13.38;7.00;;;13.80;89.20;;;;;;5021221;28;20039;-65
2023/08/14 05:49:40;;;;;;;24.90;12.77;;;13.90;89.50;;;;;;5037627;28;20474;-65
2023/08/14 05:52:08;;;;;;;21.98;11.65;;;13.90;89.40;;;;;;5038682;28;20069;-66
2023/08/14 05:54:35;;;;;;;29.67;17.50;;;13.80;89.80;;;;;;5038575;28;20021;-66
2023/08/14 05:57:03;;;;;;;13.35;6.93;;;13.80;90.10;;;;;;5037539;28;20033;-65
2023/08/14 05:59:30;;;;;;;3.63;1.65;;;13.80;89.90;;;;;;5038443;28;20040;-65
2023/08/14 06:01:58;;;;;;;2.58;1.27;;;13.80;89.60;;;;;;5038661;28;20422;-58
2023/08/14 06:04:28;;;;;;;2.90;1.40;;;13.80;89.50;;;;;;5037362;28;20112;-60
2023/08/14 06:06:55;;;;;;;2.67;1.20;;;13.80;89.40;;;;;;5020773;28;20033;-66
2023/08/14 06:09:23;;;;;;;3.83;1.85;;;13.80;89.30;;;;;;5038159;28;20027;-65
2023/08/14 06:11:51;;;;;;;2.30;1.30;;;13.80;89.10;;;;;;5020859;28;20344;-59
2023/08/14 06:14:18;;;;;;;1.98;1.20;;;13.70;88.90;;;;;;5038209;28;20079;-61
2023/08/14 06:16:46;;;;;;;2.75;1.10;;;13.80;89.40;;;;;;5020684;28;20025;-65
2023/08/14 06:19:14;;;;;;;2.60;1.30;;;13.70;89.10;;;;;;5036825;28;20133;-66
2023/08/14 06:21:41;;;;;;;3.00;1.45;;;13.70;89.30;;;;;;5038056;28;20355;-65
2023/08/14 06:24:09;;;;;;;6.35;2.70;;;13.80;89.30;;;;;;5020650;28;20036;-65
2023/08/14 06:26:37;;;;;;;2.80;1.70;;;13.80;88.90;;;;;;5036938;28;20043;-66
2023/08/14 06:29:04;;;;;;;4.85;1.45;;;13.90;88.70;;;;;;5037891;28;20070;-65
2023/08/14 06:31:32;;;;;;;2.45;1.45;;;13.90;88.70;;;;;;5036861;28;20022;-66
2023/08/14 06:34:00;;;;;;;3.80;1.70;;;13.90;88.30;;;;;;5036776;28;20152;-66
2023/08/14 06:36:28;;;;;;;2.97;1.50;;;14.00;88.70;;;;;;5019698;28;20026;-66
2023/08/14 06:38:56;;;;;;;3.80;1.40;;;14.00;88.40;;;;;;5020193;28;20164;-66
2023/08/14 06:41:23;;;;;;;2.53;1.40;;;14.00;88.30;;;;;;5020266;28;20087;-65
2023/08/14 06:43:51;;;;;;;3.08;1.15;;;14.00;88.40;;;;;;5037666;28;20040;-66
2023/08/14 06:46:19;;;;;;;1.67;1.20;;;13.90;88.10;;;;;;5037500;28;20103;-65
2023/08/14 06:48:47;;;;;;;3.30;1.40;;;13.90;88.40;;;;;;5036595;28;20031;-65
2023/08/14 06:51:15;;;;;;;3.42;1.15;;;13.90;88.30;;;;;;5020175;28;20033;-60
2023/08/14 06:53:42;;;;;;;4.55;1.10;;;13.80;88.40;;;;;;5037730;28;20096;-66
2023/08/14 06:56:10;;;;;;;3.47;1.20;;;13.80;88.20;;;;;;5036488;28;20067;-65
2023/08/14 06:58:37;;;;;;;2.55;1.35;;;13.70;88.00;;;;;;5019843;28;20036;-66
2023/08/14 07:01:06;;;;;;;4.35;1.27;;;13.80;87.90;;;;;;5036319;28;20439;-66
2023/08/14 07:03:34;;;;;;;2.25;1.10;;;13.60;87.40;;;;;;5036352;28;20435;-65
2023/08/14 07:06:02;;;;;;;3.05;1.42;;;13.60;87.30;;;;;;5019780;28;20030;-66
2023/08/14 07:08:30;;;;;;;3.00;0.90;;;13.60;87.80;;;;;;5036159;28;20032;-65
2023/08/14 07:10:58;;;;;;;3.10;1.38;;;13.60;87.60;;;;;;5036119;28;20021;-66
2023/08/14 07:13:25;;;;;;;1.63;0.90;;;13.50;87.50;;;;;;5037137;28;20323;-66
2023/08/14 07:15:53;;;;;;;3.45;1.40;;;13.60;87.50;;;;;;5036998;28;20022;-65
2023/08/14 07:18:22;;;;;;;2.05;1.10;;;13.50;88.00;;;;;;5035629;28;20488;-65
2023/08/14 07:20:50;;;;;;;2.50;1.10;;;13.50;87.80;;;;;;5037041;28;20026;-65
2023/08/14 07:23:19;;;;;;;2.50;1.40;;;13.50;87.90;;;;;;5036869;28;20025;-64
2023/08/14 07:25:49;;;;;;;4.57;1.15;;;13.60;88.10;;;;;;5035686;28;20021;-60
2023/08/14 07:28:22;;;;;;;4.45;1.50;;;13.50;87.70;;;;;;5018711;28;20036;-64
2023/08/14 07:30:49;;;;;;;2.72;1.17;;;13.50;88.10;;;;;;5019680;28;20398;-62
2023/08/14 07:33:17;;;;;;;1.85;1.10;;;13.50;87.10;;;;;;5019199;28;20017;-62
2023/08/14 07:35:45;;;;;;;2.50;1.20;;;13.50;87.40;;;;;;5036623;28;20022;-61
2023/08/14 07:38:13;;;;;;;2.63;1.40;;;13.50;87.50;;;;;;5019069;28;20490;-61
2023/08/14 07:40:40;;;;;;;3.63;1.48;;;13.60;88.00;;;;;;5036678;28;20025;-61
2023/08/14 07:43:08;;;;;;;6.00;1.83;;;13.60;87.90;;;;;;5038348;28;20061;-62
2023/08/14 07:45:35;;;;;;;4.82;2.13;;;13.60;88.00;;;;;;5019007;28;20036;-62
2023/08/14 07:48:04;;;;;;;3.83;1.90;;;13.60;88.30;;;;;;5034473;28;20087;-60
2023/08/14 07:50:31;;;;;;;5.50;2.38;;;13.50;88.40;;;;;;5034874;28;20028;-60
2023/08/14 07:52:59;;;;;;;4.75;2.08;;;13.60;88.60;;;;;;5018962;28;20021;-61
2023/08/14 07:55:27;;;;;;;6.28;2.40;;;13.60;88.70;;;;;;5036325;28;20394;-60
2023/08/14 07:57:55;;;;;;;4.28;1.98;;;13.60;88.50;;;;;;5034982;28;20065;-61
2023/08/14 08:00:22;;;;;;;3.70;1.65;;;13.60;88.20;;;;;;5034793;28;20022;-62
2023/08/14 08:03:09;;;;;;;4.72;3.08;;;13.60;87.90;;;;;;5035476;28;20048;-60
2023/08/14 08:05:37;;;;;;;7.07;2.28;;;13.60;87.80;;;;;;5017658;28;20110;-61
2023/08/14 08:08:05;;;;;;;2.80;1.77;;;13.60;87.70;;;;;;5034666;28;20108;-60
2023/08/14 08:10:33;;;;;;;5.00;1.80;;;13.60;87.60;;;;;;5034892;28;20018;-62
2023/08/14 08:13:00;;;;;;;5.63;1.85;;;13.50;87.70;;;;;;5018515;28;20021;-61
2023/08/14 08:15:28;;;;;;;5.15;1.70;;;13.40;87.00;;;;;;5034702;28;20021;-61
2023/08/14 08:17:55;;;;;;;4.75;1.98;;;13.40;87.50;;;;;;5034688;28;20526;-61
2023/08/14 08:20:23;;;;;;;5.47;2.20;;;13.50;87.30;;;;;;5018269;28;20133;-61
2023/08/14 08:22:51;;;;;;;4.40;1.55;;;13.50;87.50;;;;;;5018424;28;20471;-61
2023/08/14 08:25:19;;;;;;;3.67;1.42;;;13.40;86.80;;;;;;5034685;28;20044;-61
2023/08/14 08:27:46;;;;;;;4.10;1.75;;;13.40;87.20;;;;;;5018298;28;20443;-61
2023/08/14 08:30:14;;;;;;;4.57;1.80;;;13.50;87.20;;;;;;5034620;28;20052;-60
2023/08/14 08:32:41;;;;;;;3.88;2.17;;;13.40;87.00;;;;;;5034639;28;20448;-61
2023/08/14 08:35:09;;;;;;;3.50;1.80;;;13.40;87.00;;;;;;5035443;28;20025;-61
2023/08/14 08:37:37;;;;;;;4.53;2.00;;;13.40;87.10;;;;;;5035271;28;20045;-61
2023/08/14 08:40:06;;;;;;;3.33;1.80;;;13.50;87.40;;;;;;5034393;28;20465;-61
2023/08/14 08:42:34;;;;;;;4.78;1.80;;;13.40;86.90;;;;;;5034461;28;20107;-60
2023/08/14 08:45:06;;;;;;;4.32;2.17;;;13.40;87.20;;;;;;5034309;28;20053;-59
2023/08/14 08:47:41;;;;;;;2.67;1.80;;;13.40;87.20;;;;;;5017695;28;20455;-60
2023/08/14 08:50:10;;;;;;;3.85;1.65;;;13.40;87.30;;;;;;4985879;28;20064;-62
2023/08/14 08:52:39;;;;;;;5.07;1.90;;;13.30;87.00;;;;;;5034317;28;20064;-60
2023/08/14 08:55:08;;;;;;;4.22;1.70;;;13.20;87.40;;;;;;5034205;28;20129;-60
2023/08/14 08:57:38;;;;;;;3.03;1.90;;;13.30;87.30;;;;;;5034141;28;20033;-61
2023/08/14 09:00:07;;;;;;;4.00;1.90;;;13.20;87.40;;;;;;5017398;28;20029;-60
2023/08/14 09:02:36;;;;;;;3.15;1.65;;;13.30;87.50;;;;;;5034153;28;20029;-61
2023/08/14 09:05:04;;;;;;;4.13;1.65;;;13.20;87.50;;;;;;5017745;28;20039;-60
2023/08/14 09:07:32;;;;;;;4.43;1.90;;;13.20;87.70;;;;;;5034239;28;20049;-60
2023/08/14 09:10:00;;;;;;;2.58;1.60;;;13.10;87.70;;;;;;5034037;28;20443;-60
2023/08/14 09:12:29;;;;;;;2.85;1.70;;;13.10;87.90;;;;;;5017638;28;20056;-62
2023/08/14 09:15:24;;;;;;;3.95;1.92;;;13.10;87.90;;;;;;5017680;28;20025;-60
2023/08/14 09:17:55;;;;;;;3.38;2.13;;;13.10;88.00;;;;;;5014677;28;20381;-61
2023/08/14 09:20:23;;;;;;;3.47;1.85;;;13.10;88.20;;;;;;5030636;28;20093;-59
2023/08/14 09:22:55;;;;;;;4.03;2.63;;;13.10;88.40;;;;;;5030715;28;20113;-60
2023/08/14 09:25:23;;;;;;;5.32;3.10;;;13.10;88.70;;;;;;5014407;28;20346;-60
2023/08/14 09:27:51;;;;;;;5.95;3.00;;;13.00;88.70;;;;;;5030515;28;20041;-61
2023/08/14 09:30:19;;;;;;;5.97;3.00;;;13.00;88.70;;;;;;5014212;28;20105;-60
2023/08/14 09:32:46;;;;;;;5.10;3.00;;;12.90;89.20;;;;;;5030603;28;20436;-61
2023/08/14 09:35:14;;;;;;;5.68;3.25;;;12.90;89.00;;;;;;5015738;28;20068;-61
2023/08/14 09:37:41;;;;;;;7.03;3.85;;;13.00;89.00;;;;;;5030384;28;20060;-61
2023/08/14 09:40:17;;;;;;;5.18;3.60;;;12.90;88.80;;;;;;5015014;28;20105;-61
2023/08/14 09:42:47;;;;;;;7.38;4.15;;;13.00;88.60;;;;;;5030505;28;20081;-60
2023/08/14 09:45:17;;;;;;;6.50;3.90;;;12.80;89.20;;;;;;5030446;28;20022;-62
2023/08/14 09:47:47;;;;;;;6.25;4.57;;;12.70;89.10;;;;;;5014945;28;20030;-60
2023/08/14 09:50:14;;;;;;;6.95;4.63;;;12.80;89.20;;;;;;5030405;28;20026;-62
2023/08/14 09:52:44;;;;;;;6.40;4.40;;;12.70;89.50;;;;;;5030418;28;20156;-60
2023/08/14 09:55:14;;;;;;;9.05;5.47;;;12.70;89.30;;;;;;5014924;28;20325;-62
2023/08/14 09:57:42;;;;;;;8.00;5.20;;;12.60;89.70;;;;;;5014044;28;20022;-60
2023/08/14 10:00:12;;;;;;;7.22;5.30;;;12.60;89.90;;;;;;5030383;28;20073;-61
2023/08/14 10:02:41;;;;;;;9.43;6.20;;;12.50;90.00;;;;;;5015580;28;20084;-60
2023/08/14 10:05:10;;;;;;;9.73;5.95;;;12.70;90.10;;;;;;5030399;28;20026;-60
2023/08/14 10:07:44;;;;;;;9.65;6.35;;;12.70;90.00;;;;;;5029921;28;20116;-60
2023/08/14 10:10:14;;;;;;;10.30;6.13;;;12.70;89.80;;;;;;5015013;28;20471;-60
2023/08/14 10:12:51;;;;;;;7.90;5.90;;;12.60;90.00;;;;;;5016668;28;20105;-60
2023/08/14 10:15:29;;;;;;;7.45;5.47;;;12.60;89.80;;;;;;5034498;28;20080;-61
2023/08/14 10:18:01;;;;;;;9.35;5.82;;;12.70;89.80;;;;;;5033483;28;20092;-60
2023/08/14 10:20:35;;;;;;;8.63;5.97;;;12.60;89.80;;;;;;5033630;28;20387;-60
2023/08/14 10:23:04;;;;;;;10.13;6.30;;;12.70;89.70;;;;;;5001343;28;20297;-59
2023/08/14 10:25:35;;;;;;;8.55;6.35;;;12.70;89.80;;;;;;5033656;28;20026;-60
2023/08/14 10:28:03;;;;;;;9.85;6.10;;;12.80;90.00;;;;;;5000767;28;20049;-60
2023/08/14 10:30:32;;;;;;;10.55;6.35;;;12.70;90.00;;;;;;5017768;28;20089;-59
2023/08/14 10:32:59;;;;;;;8.77;5.65;;;12.60;90.00;;;;;;5016298;28;20032;-60
2023/08/14 10:35:27;;;;;;;8.85;6.25;;;12.70;90.00;;;;;;5032977;28;20065;-61
2023/08/14 10:37:55;;;;;;;10.32;6.10;;;12.70;90.20;;;;;;5015897;28;20401;-61
2023/08/14 10:40:24;;;;;;;9.48;5.97;;;12.70;90.10;;;;;;5033148;28;20068;-61
2023/08/14 10:42:58;;;;;;;9.85;5.32;;;12.60;89.90;;;;;;5016803;28;20364;-60
2023/08/14 10:45:28;;;;;;;10.20;5.82;;;12.50;90.20;;;;;;5017785;28;20072;-60
2023/08/14 10:48:09;;;;;;;8.93;5.53;;;12.50;90.20;;;;;;5000429;28;20025;-61
2023/08/14 10:50:37;;;;;;;9.23;5.65;;;12.50;90.10;;;;;;5033231;28;20105;-60
2023/08/14 10:53:06;;;;;;;7.95;5.43;;;12.50;90.00;;;;;;5032918;28;20384;-60
2023/08/14 10:55:52;;;;;;;9.50;5.90;;;12.50;89.90;;;;;;5032608;28;20048;-61
2023/08/14 10:58:35;;;;;;;7.85;5.80;;;12.50;90.20;;;;;;5032933;28;20440;-61
2023/08/14 11:01:11;;;;;;;8.02;5.72;;;12.50;90.30;;;;;;5016439;28;20038;-60
2023/08/14 11:04:06;;;;;;;10.55;5.95;;;12.40;90.20;;;;;;5017288;28;20416;-61
2023/08/14 11:06:58;;;;;;;9.85;5.97;;;12.40;90.60;;;;;;5017087;28;20036;-61
2023/08/14 11:09:34;;;;;;;7.93;5.30;;;12.50;90.60;;;;;;5017017;28;20339;-62
2023/08/14 11:12:07;;;;;;;9.50;5.40;;;12.50;90.50;;;;;;5016836;28;20052;-62
2023/08/14 11:14:40;;;;;;;8.60;5.55;;;12.30;90.80;;;;;;5016524;28;20014;-61
2023/08/14 11:17:09;;;;;;;7.82;5.15;;;12.20;90.80;;;;;;5015988;28;20034;-60
2023/08/14 11:19:37;;;;;;;8.77;4.68;;;12.20;91.00;;;;;;5032340;28;20480;-61
2023/08/14 11:22:06;;;;;;;8.90;5.55;;;12.20;90.90;;;;;;5015957;28;20116;-60
2023/08/14 11:24:33;;;;;;;7.43;4.85;;;12.20;90.90;;;;;;5016749;28;20036;-60
2023/08/14 11:27:02;;;;;;;7.50;4.97;;;12.20;91.10;;;;;;5032058;28;20448;-61
2023/08/14 11:29:30;;;;;;;8.65;5.05;;;12.20;91.20;;;;;;5016793;28;20356;-60
2023/08/14 11:31:59;;;;;;;6.65;4.70;;;12.20;91.10;;;;;;5032410;28;20018;-61
2023/08/14 11:34:26;;;;;;;7.75;5.20;;;12.30;90.90;;;;;;5016880;28;20368;-60
2023/08/14 11:37:03;;;;;;;9.15;5.28;;;12.10;90.80;;;;;;5032320;28;20030;-60
2023/08/14 11:39:32;;;;;;;8.38;5.55;;;12.10;91.10;;;;;;5032113;28;20108;-61
2023/08/14 11:42:00;;;;;;;7.95;5.40;;;12.00;91.20;;;;;;5015757;28;20034;-60
2023/08/14 11:44:28;;;;;;;9.93;5.20;;;12.00;91.60;;;;;;5032031;28;20061;-61
2023/08/14 11:46:56;;;;;;;10.35;5.60;;;12.10;91.60;;;;;;5031724;28;20126;-60
2023/08/14 11:49:24;;;;;;;9.50;5.45;;;12.10;91.40;;;;;;5031585;28;20044;-60
2023/08/14 11:51:54;;;;;;;9.07;6.07;;;12.10;91.50;;;;;;5032032;28;20463;-61
2023/08/14 11:54:21;;;;;;;8.45;5.25;;;12.20;91.50;;;;;;5016513;28;20383;-61
2023/08/14 11:56:49;;;;;;;8.13;5.32;;;12.10;90.90;;;;;;5032009;28;20022;-60
2023/08/14 11:59:20;;;;;;;8.27;5.93;;;12.10;91.20;;;;;;5031752;28;20092;-61
2023/08/14 12:01:48;;;;;;;10.70;5.45;;;12.10;91.00;;;;;;5031827;28;20036;-62
2023/08/14 12:04:15;;;;;;;7.97;5.63;;;12.10;91.10;;;;;;5031795;28;20026;-60
2023/08/14 12:06:44;;;;;;;8.10;5.10;;;12.10;91.00;;;;;;5031727;28;20494;-60
2023/08/14 12:09:11;;;;;;;8.63;5.28;;;12.00;91.10;;;;;;5031785;28;20036;-61
2023/08/14 12:11:40;;;;;;;8.13;5.30;;;12.00;91.10;;;;;;5031628;28;20026;-61
2023/08/14 12:14:08;;;;;;;7.65;5.53;;;12.00;91.20;;;;;;5016321;28;20145;-61
2023/08/14 12:16:40;;;;;;;8.95;4.90;;;12.00;90.80;;;;;;5031705;28;20030;-61
2023/08/14 12:19:12;;;;;;;7.80;5.33;;;12.00;91.00;;;;;;5031380;28;20482;-60
2023/08/14 12:21:40;;;;;;;6.28;4.45;;;11.90;90.90;;;;;;5031583;28;20075;-62
2023/08/14 12:24:07;;;;;;;6.78;4.68;;;11.90;91.00;;;;;;5031449;28;20030;-61
2023/08/14 12:26:43;;;;;;;5.85;3.78;;;11.90;90.70;;;;;;5031311;28;20478;-61
2023/08/14 12:29:15;;;;;;;5.70;4.00;;;11.80;90.60;;;;;;5031291;28;20021;-61
2023/08/14 12:31:42;;;;;;;5.40;4.03;;;11.80;90.70;;;;;;5015038;28;20022;-60
2023/08/14 12:34:10;;;;;;;6.13;4.28;;;11.80;90.80;;;;;;5014447;28;20030;-60
2023/08/14 12:36:37;;;;;;;6.95;5.00;;;11.80;90.70;;;;;;5030896;28;20041;-61
2023/08/14 12:39:05;;;;;;;7.85;5.00;;;11.80;91.20;;;;;;5015615;28;20022;-61
2023/08/14 12:41:33;;;;;;;7.00;5.15;;;11.60;91.60;;;;;;5031135;28;20456;-61
2023/08/14 12:44:00;;;;;;;11.73;5.93;;;11.50;92.00;;;;;;5031125;28;20077;-61
2023/08/14 12:46:28;;;;;;;11.20;7.18;;;11.40;92.40;;;;;;5031006;28;20036;-61
2023/08/14 12:48:55;;;;;;;12.13;8.07;;;11.30;92.70;;;;;;5031022;28;20408;-61
2023/08/14 12:51:23;;;;;;;14.00;7.57;;;11.30;93.00;;;;;;5030951;28;20026;-61
2023/08/14 12:53:50;;;;;;;12.07;7.30;;;11.30;93.20;;;;;;5014771;28;20029;-61